^^
Saratoga-Weather Station Historical Data
Daily Summary for August 10, 2021 Units:  English    Metric   Both
Daily Weekly Monthly Yearly Custom
  High: Low: Average:
Temperature: 36.1 °F 32 °F 33.4 °F
Dew Point: 34.5 °F 32 °F 32.5 °F
Humidity: 96% % 53%
Wind Speed: 8.9mph 0mph 1mph
Wind Gust: 11mph - -
Wind- - ENE
Pressure: 29.6 in 0 in -
Precipitation: 0 in    
Historical Graphs
 
 
Tabular Data for August 10, 2021
Time Temperature Dew Point Pressure Wind Wind Speed Wind Gust Humidity Rainfall Rate (Hourly) solar
00:04 36 °F 34.2 °F 29.6 in ENE 2.9 mph 4 mph 93% 0 in 0 W/m2
00:09 36 °F 34.3 °F 29.6 in ENE 2.9 mph 3 mph 94% 0 in 0 W/m2
00:14 36 °F 34.3 °F 29.6 in Calm   4 mph 94% 0 in 0 W/m2
00:19 36 °F 34.3 °F 29.6 in ENE 2.9 mph 4 mph 94% 0 in 0 W/m2
00:24 36 °F 34.3 °F 29.6 in East 2 mph 3 mph 94% 0 in 0 W/m2
00:29 36.1 °F 34.5 °F 29.6 in ENE 0.9 mph 4 mph 94% 0 in 0 W/m2
00:34 36 °F 34.3 °F 29.6 in ENE 2.9 mph 4 mph 94% 0 in 0 W/m2
00:39 36 °F 34.2 °F 29.6 in ENE 0.9 mph 4 mph 93% 0 in 0 W/m2
00:44 35.8 °F 34 °F 29.6 in NE 2 mph 4 mph 93% 0 in 0 W/m2
00:49 35.8 °F 34 °F 29.6 in NNE 2.9 mph 3 mph 93% 0 in 0 W/m2
00:54 35.8 °F 34 °F 29.6 in East 2.9 mph 3 mph 93% 0 in 0 W/m2
00:59 35.6 °F 34 °F 29.6 in ENE 2 mph 3 mph 94% 0 in 0 W/m2
01:04 35.4 °F 33.8 °F 29.5 in NE 0.9 mph 2 mph 94% 0 in 0 W/m2
01:09 35.4 °F 33.8 °F 29.5 in ESE 0.9 mph 2 mph 94% 0 in 0 W/m2
01:14 35.2 °F 33.6 °F 29.5 in East 0.9 mph 2 mph 94% 0 in 0 W/m2
01:19 35.2 °F 33.6 °F 29.5 in Calm   2 mph 94% 0 in 0 W/m2
01:24 35.2 °F 33.6 °F 29.5 in ENE 2 mph 4 mph 94% 0 in 0 W/m2
01:29 35.2 °F 33.6 °F 29.5 in SE 2 mph 3 mph 94% 0 in 0 W/m2
01:34 35.2 °F 33.6 °F 29.5 in Calm   3 mph 94% 0 in 0 W/m2
01:55 35.1 °F 33.4 °F 29.5 in Calm     94% 0 in 0 W/m2
02:00 35.1 °F 33.4 °F 29.5 in ENE 0.9 mph 3 mph 94% 0 in 0 W/m2
02:05 35.1 °F 33.4 °F 29.5 in NE 2.9 mph 3 mph 94% 0 in 0 W/m2
02:10 35.1 °F 33.4 °F 29.5 in NNE 0.9 mph 1 mph 94% 0 in 0 W/m2
02:15 34.9 °F 33.3 °F 29.5 in ENE 0.9 mph 3 mph 94% 0 in 0 W/m2
02:20 34.5 °F 32.9 °F 29.5 in Calm     94% 0 in 0 W/m2
02:25 34.3 °F 32.7 °F 29.5 in Calm   3 mph 94% 0 in 0 W/m2
02:30 34.2 °F 32.5 °F 29.5 in Calm     94% 0 in 0 W/m2
02:35 34.2 °F 32.5 °F 29.5 in Calm     94% 0 in 0 W/m2
02:40 33.8 °F 32.2 °F 29.5 in Calm     94% 0 in 0 W/m2
02:45 33.4 °F 31.8 °F 29.5 in Calm     94% 0 in 0 W/m2
02:50 33.4 °F 31.8 °F 29.5 in Calm   1 mph 94% 0 in 0 W/m2
02:55 33.4 °F 31.8 °F 29.5 in ENE 4 mph 4 mph 94% 0 in 0 W/m2
03:00 34 °F 32.7 °F 29.5 in ESE 2.9 mph 3 mph 95% 0 in 0 W/m2
03:05 34.2 °F 32.9 °F 29.5 in ENE 6 mph 9 mph 95% 0 in 0 W/m2
03:10 34.3 °F 33.1 °F 29.5 in East 6.9 mph 8 mph 95% 0 in 0 W/m2
03:15 34.5 °F 33.3 °F 29.5 in SE 2.9 mph 4 mph 95% 0 in 0 W/m2
03:20 34.5 °F 33.3 °F 29.5 in ENE 2 mph 8 mph 95% 0 in 0 W/m2
03:25 34.5 °F 33.3 °F 29.5 in ENE 0.9 mph 8 mph 95% 0 in 0 W/m2
03:30 34.7 °F 33.4 °F 29.4 in ENE 2.9 mph 10 mph 95% 0 in 0 W/m2
03:35 34.9 °F 33.6 °F 29.4 in East 2.9 mph 11 mph 95% 0 in 0 W/m2
03:40 34.9 °F 33.6 °F 29.4 in ENE 2 mph 10 mph 95% 0 in 0 W/m2
03:45 34.9 °F 33.6 °F 29.4 in ENE 2.9 mph 11 mph 95% 0 in 0 W/m2
03:50 35.1 °F 33.4 °F 29.4 in East 2.9 mph 9 mph 94% 0 in 0 W/m2
03:55 35.1 °F 33.4 °F 29.4 in NE 4 mph 8 mph 94% 0 in 0 W/m2
04:00 35.1 °F 33.4 °F 29.4 in NE 4.9 mph 6 mph 94% 0 in 0 W/m2
04:20 34.9 °F 33.3 °F 29.4 in ENE 2.9 mph 7 mph 94% 0 in 0 W/m2
04:25 34.9 °F 33.3 °F 29.4 in East 4 mph 7 mph 94% 0 in 0 W/m2
04:30 34.9 °F 33.3 °F 29.4 in NE 2.9 mph 4 mph 94% 0 in 0 W/m2
04:35 34.9 °F 33.3 °F 29.4 in ENE 4 mph 6 mph 94% 0 in 0 W/m2
04:41 34.9 °F 33.3 °F 29.4 in East 8.9 mph 9 mph 94% 0 in 0 W/m2
04:46 34.9 °F 33.3 °F 29.4 in ENE 4 mph 7 mph 94% 0 in 0 W/m2
04:51 35.1 °F 33.4 °F 29.4 in ENE 2.9 mph 5 mph 94% 0 in 0 W/m2
05:07 35.1 °F 33.3 °F 29.4 in East 2 mph 6 mph 93% 0 in 0 W/m2
05:12 35.1 °F 33.3 °F 29.4 in SE 2.9 mph 8 mph 93% 0 in 0 W/m2
05:17 35.1 °F 33.3 °F 29.4 in ENE 4 mph 7 mph 93% 0 in 0 W/m2
05:22 35.2 °F 33.4 °F 29.4 in SE 2.9 mph 8 mph 93% 0 in 0 W/m2
05:27 35.2 °F 33.4 °F 29.4 in East 0.9 mph 4 mph 93% 0 in 0 W/m2
05:32 35.2 °F 33.4 °F 29.4 in East 0.9 mph 7 mph 93% 0 in 0 W/m2
05:37 35.2 °F 33.4 °F 29.3 in East 0.9 mph 2 mph 93% 0 in 0 W/m2
05:42 35.2 °F 33.4 °F 29.3 in East 0.9 mph 3 mph 93% 0 in 0 W/m2
05:47 35.2 °F 33.4 °F 29.3 in Calm   4 mph 93% 0 in 0 W/m2
05:52 35.2 °F 33.4 °F 29.3 in East 2 mph 4 mph 93% 0 in 0 W/m2
05:57 35.2 °F 33.4 °F 29.3 in ESE 0.9 mph 4 mph 93% 0 in 0 W/m2
06:02 35.2 °F 33.1 °F 29.3 in East 2.9 mph 4 mph 92% 0 in 0 W/m2
06:07 35.2 °F 33.1 °F 29.3 in ENE 2.9 mph 3 mph 92% 0 in 0 W/m2
06:12 35.2 °F 33.1 °F 29.3 in East 2 mph 3 mph 92% 0 in 0 W/m2
06:17 35.1 °F 32.9 °F 29.3 in ENE 0.9 mph 3 mph 92% 0 in 0 W/m2
06:22 34.9 °F 33.1 °F 29.3 in East 2 mph 4 mph 93% 0 in 0 W/m2
06:27 34.9 °F 33.1 °F 29.3 in East 2 mph 3 mph 93% 0 in 0 W/m2
06:32 34.5 °F 32.7 °F 29.3 in East 2 mph 3 mph 93% 0.01 in 0 W/m2
06:37 34.5 °F 32.7 °F 29.3 in East 0.9 mph 4 mph 93% 0.01 in 0 W/m2
06:42 34.3 °F 32.5 °F 29.3 in East 2 mph 6 mph 93% 0.01 in 0 W/m2
06:47 34.2 °F 32.4 °F 29.3 in East 0.9 mph 2 mph 93% 0.01 in 0 W/m2
06:52 34 °F 32.2 °F 29.3 in ESE 2.9 mph 4 mph 93% 0.01 in 0 W/m2
06:57 33.8 °F 32.2 °F 29.3 in East 2 mph 3 mph 94% 0.01 in 0 W/m2
07:02 33.4 °F 31.8 °F 29.3 in ESE 4 mph 4 mph 94% 0.01 in 0 W/m2
07:07 33.4 °F 31.8 °F 29.3 in ENE 0.9 mph 2 mph 94% 0.01 in 0 W/m2
07:12 33.3 °F 31.6 °F 29.3 in East 0.9 mph 1 mph 94% 0.01 in 0 W/m2
07:17 33.3 °F 31.6 °F 29.3 in Calm   2 mph 94% 0.01 in 0 W/m2
07:22 33.3 °F 32 °F 29.3 in Calm   2 mph 95% 0.01 in 0 W/m2
07:27 33.1 °F 31.8 °F 29.3 in ENE 0.9 mph 3 mph 95% 0.01 in 0 W/m2
07:32 33.1 °F 31.8 °F 29.3 in NE 0.9 mph 2 mph 95% 0 in 0 W/m2
07:37 33.1 °F 31.8 °F 29.3 in East 0.9 mph 3 mph 95% 0 in 0 W/m2
07:42 33.1 °F 31.8 °F 29.3 in East 0.9 mph 2 mph 95% 0 in 0 W/m2
07:48 32.9 °F 31.6 °F 29.3 in East 0.9 mph 2 mph 95% 0 in 0 W/m2
07:53 32.9 °F 31.6 °F 29.3 in Calm   1 mph 95% 0 in 0 W/m2
07:58 32.9 °F 31.6 °F 29.3 in Calm   2 mph 95% 0 in 0 W/m2
08:03 32.9 °F 31.6 °F 29.3 in ENE 0.9 mph 2 mph 95% 0 in 0 W/m2
08:08 32.9 °F 31.6 °F 29.3 in Calm   1 mph 95% 0 in 0 W/m2
08:13 32.9 °F 31.6 °F 29.3 in Calm   2 mph 95% 0 in 0 W/m2
08:18 32.9 °F 31.6 °F 29.3 in ENE 0.9 mph 2 mph 95% 0 in 0 W/m2
08:23 32.9 °F 31.6 °F 29.3 in Calm   2 mph 95% 0 in 0 W/m2
08:28 32.9 °F 31.6 °F 29.3 in ENE 2 mph 2 mph 95% 0 in 0 W/m2
08:46 32.7 °F 31.6 °F 29.3 in NNE 0.9 mph 2 mph 96% 0 in 0 W/m2
10:46 32 °F 32 °F 0 in Calm     % 0 in W/m2
10:57 32 °F 32 °F 0 in Calm     % 0 in W/m2
11:08 32 °F 32 °F 0 in Calm     % 0 in W/m2
11:18 32 °F 32 °F 0 in Calm     % 0 in W/m2
11:28 32 °F 32 °F 0 in Calm     % 0 in W/m2
11:39 32 °F 32 °F 0 in Calm     % 0 in W/m2
11:50 32 °F 32 °F 0 in Calm     % 0 in W/m2
12:00 32 °F 32 °F 0 in Calm     % 0 in W/m2
12:11 32 °F 32 °F 0 in Calm     % 0 in W/m2
12:22 32 °F 32 °F 0 in Calm     % 0 in W/m2
12:32 32 °F 32 °F 0 in Calm     % 0 in W/m2
12:42 32 °F 32 °F 0 in Calm     % 0 in W/m2
12:53 32 °F 32 °F 0 in Calm     % 0 in W/m2
13:03 32 °F 32 °F 0 in Calm     % 0 in W/m2
13:14 32 °F 32 °F 0 in Calm     % 0 in W/m2
13:24 32 °F 32 °F 0 in Calm     % 0 in W/m2
13:35 32 °F 32 °F 0 in Calm     % 0 in W/m2
13:46 32 °F 32 °F 0 in Calm     % 0 in W/m2
13:57 32 °F 32 °F 0 in Calm     % 0 in W/m2
14:13 32 °F 32 °F 0 in Calm     % 0 in W/m2
14:24 32 °F 32 °F 0 in Calm     % 0 in W/m2
14:34 32 °F 32 °F 0 in Calm     % 0 in W/m2
14:45 32 °F 32 °F 0 in Calm     % 0 in W/m2
14:55 32 °F 32 °F 0 in Calm     % 0 in W/m2
15:06 32 °F 32 °F 0 in Calm     % 0 in W/m2
15:16 32 °F 32 °F 0 in Calm     % 0 in W/m2
15:27 32 °F 32 °F 0 in Calm     % 0 in W/m2
15:38 32 °F 32 °F 0 in Calm     % 0 in W/m2
15:48 32 °F 32 °F 0 in Calm     % 0 in W/m2
16:09 32 °F 32 °F 0 in Calm     % 0 in W/m2
16:20 32 °F 32 °F 0 in Calm     % 0 in W/m2
16:31 32 °F 32 °F 0 in Calm     % 0 in W/m2
16:41 32 °F 32 °F 0 in Calm     % 0 in W/m2
16:52 32 °F 32 °F 0 in Calm     % 0 in W/m2
17:02 32 °F 32 °F 0 in Calm     % 0 in W/m2
17:13 32 °F 32 °F 0 in Calm     % 0 in W/m2
17:23 32 °F 32 °F 0 in Calm     % 0 in W/m2
17:34 32 °F 32 °F 0 in Calm     % 0 in W/m2
17:44 32 °F 32 °F 0 in Calm     % 0 in W/m2
17:55 32 °F 32 °F 0 in Calm     % 0 in W/m2
18:05 32 °F 32 °F 0 in Calm     % 0 in W/m2
18:16 32 °F 32 °F 0 in Calm     % 0 in W/m2
18:27 32 °F 32 °F 0 in Calm     % 0 in W/m2
18:37 32 °F 32 °F 0 in Calm     % 0 in W/m2
18:48 32 °F 32 °F 0 in Calm     % 0 in W/m2
18:59 32 °F 32 °F 0 in Calm     % 0 in W/m2
19:09 32 °F 32 °F 0 in Calm     % 0 in W/m2
19:20 32 °F 32 °F 0 in Calm     % 0 in W/m2
19:30 32 °F 32 °F 0 in Calm     % 0 in W/m2
19:40 32 °F 32 °F 0 in Calm     % 0 in W/m2
19:51 32 °F 32 °F 0 in Calm     % 0 in W/m2
20:01 32 °F 32 °F 0 in Calm     % 0 in W/m2
20:12 32 °F 32 °F 0 in Calm     % 0 in W/m2
20:23 32 °F 32 °F 0 in Calm     % 0 in W/m2
20:34 32 °F 32 °F 0 in Calm     % 0 in W/m2
20:44 32 °F 32 °F 0 in Calm     % 0 in W/m2
20:54 32 °F 32 °F 0 in Calm     % 0 in W/m2
21:05 32 °F 32 °F 0 in Calm     % 0 in W/m2
21:16 32 °F 32 °F 0 in Calm     % 0 in W/m2
21:26 32 °F 32 °F 0 in Calm     % 0 in W/m2
21:37 32 °F 32 °F 0 in Calm     % 0 in W/m2
21:47 32 °F 32 °F 0 in Calm     % 0 in W/m2
21:58 32 °F 32 °F 0 in Calm     % 0 in W/m2
22:09 32 °F 32 °F 0 in Calm     % 0 in W/m2
22:19 32 °F 32 °F 0 in Calm     % 0 in W/m2
22:29 32 °F 32 °F 0 in Calm     % 0 in W/m2
22:40 32 °F 32 °F 0 in Calm     % 0 in W/m2
22:51 32 °F 32 °F 0 in Calm     % 0 in W/m2
23:01 32 °F 32 °F 0 in Calm     % 0 in W/m2
23:12 32 °F 32 °F 0 in Calm     % 0 in W/m2
23:22 32 °F 32 °F 0 in Calm     % 0 in W/m2
23:33 32 °F 32 °F 0 in Calm     % 0 in W/m2
23:44 32 °F 32 °F 0 in Calm     % 0 in W/m2
23:54 32 °F 32 °F 0 in Calm     % 0 in W/m2
Juneau County Weather
Compliments of Weather Underground - 2 mb